createdAt,value
2018-07-07T00:35:00.263Z,15.17
2018-07-07T00:37:29.393Z,14.87
2018-07-07T00:39:59.316Z,16.67
2018-07-07T00:42:29.249Z,16.53
2018-07-07T00:44:58.612Z,17.73
2018-07-07T00:47:29.121Z,18.17
2018-07-07T00:49:58.529Z,19.37
2018-07-07T00:52:28.268Z,19.93
2018-07-07T00:54:57.949Z,19.27
2018-07-07T00:57:27.192Z,18.07
2018-07-07T00:59:56.286Z,19.30
2018-07-07T01:02:25.665Z,18.92
2018-07-07T01:04:55.658Z,18.30
2018-07-07T01:07:24.978Z,18.80
2018-07-07T01:09:54.173Z,18.97
2018-07-07T01:12:23.415Z,19.17
2018-07-07T01:14:53.533Z,19.60
2018-07-07T01:17:22.695Z,20.57
2018-07-07T01:19:52.024Z,19.33
2018-07-07T01:22:21.143Z,19.97
2018-07-07T01:24:51.148Z,20.70
2018-07-07T01:27:20.371Z,20.07
2018-07-07T01:29:49.763Z,21.63
2018-07-07T01:32:18.551Z,20.90
2018-07-07T01:34:48.193Z,20.93
2018-07-07T01:37:18.005Z,23.03
2018-07-07T01:39:47.151Z,22.93
2018-07-07T01:42:16.363Z,23.17
2018-07-07T01:44:45.615Z,22.63
2018-07-07T01:47:14.887Z,24.30
2018-07-07T01:49:44.120Z,25.47
2018-07-07T01:52:13.394Z,25.43
2018-07-07T01:54:42.567Z,26.10
2018-07-07T01:57:11.765Z,26.67
2018-07-07T01:59:41.241Z,26.10
2018-07-07T02:02:10.431Z,26.13
2018-07-07T02:04:39.734Z,27.03
2018-07-07T02:07:09.404Z,28.33
2018-07-07T02:09:39.136Z,28.33
2018-07-07T02:12:08.624Z,29.87
2018-07-07T02:14:38.069Z,27.77
2018-07-07T02:17:07.135Z,27.50
2018-07-07T02:19:36.393Z,30.07
2018-07-07T02:22:05.535Z,32.63
2018-07-07T02:24:34.621Z,28.43
2018-07-07T02:27:03.687Z,28.90
2018-07-07T02:29:32.977Z,30.07
2018-07-07T02:32:02.195Z,28.23
2018-07-07T02:34:31.314Z,28.70
2018-07-07T02:37:00.493Z,27.57
2018-07-07T02:39:29.610Z,27.97
2018-07-07T02:42:02.245Z,27.47
2018-07-07T02:44:31.332Z,28.47
2018-07-07T02:47:00.438Z,28.33
2018-07-07T02:49:29.527Z,26.37
2018-07-07T02:51:58.677Z,28.50
2018-07-07T02:54:27.956Z,27.50
2018-07-07T02:56:57.652Z,26.93
2018-07-07T02:59:26.729Z,30.37
2018-07-07T03:01:56.150Z,29.10
2018-07-07T03:04:25.880Z,31.10
2018-07-07T03:06:55.936Z,29.53
2018-07-07T03:09:25.111Z,28.97
2018-07-07T03:11:54.330Z,27.97
2018-07-07T03:14:23.675Z,28.40
2018-07-07T03:16:52.960Z,27.07
2018-07-07T03:19:22.828Z,26.67
2018-07-07T03:21:51.921Z,27.27
2018-07-07T03:24:21.022Z,26.23
2018-07-07T03:26:50.294Z,26.30
2018-07-07T03:29:19.473Z,25.93
2018-07-07T03:31:48.761Z,25.70
2018-07-07T03:34:18.091Z,26.70
2018-07-07T03:36:47.145Z,24.40
2018-07-07T03:39:16.394Z,27.30
2018-07-07T03:41:45.585Z,26.33
2018-07-07T03:44:14.907Z,26.17
2018-07-07T03:46:43.662Z,28.73
2018-07-07T03:49:12.777Z,25.80
2018-07-07T03:51:42.025Z,27.30
2018-07-07T03:54:11.108Z,25.90
2018-07-07T03:56:40.355Z,24.60
2018-07-07T03:59:09.543Z,25.07
2018-07-07T04:01:38.833Z,25.10
2018-07-07T04:04:14.644Z,28.70
2018-07-07T04:06:43.751Z,26.67
2018-07-07T04:09:12.977Z,26.60
2018-07-07T04:11:42.208Z,28.10
2018-07-07T04:14:11.715Z,27.93
2018-07-07T04:16:41.552Z,27.80
2018-07-07T04:19:10.936Z,28.47
2018-07-07T04:21:40.155Z,27.60
2018-07-07T04:24:09.246Z,27.73
2018-07-07T04:26:38.426Z,25.60
2018-07-07T04:29:07.707Z,25.80
2018-07-07T04:31:36.958Z,27.50
2018-07-07T04:34:06.405Z,24.63
2018-07-07T04:36:35.754Z,23.80
2018-07-07T04:39:05.717Z,24.50
2018-07-07T04:41:35.149Z,25.00
2018-07-07T04:44:04.391Z,26.30
2018-07-07T04:46:33.615Z,24.60
2018-07-07T04:49:02.849Z,23.17
2018-07-07T04:51:32.401Z,23.77
2018-07-07T04:54:02.374Z,23.20
2018-07-07T04:56:31.576Z,22.80
2018-07-07T04:59:01.353Z,23.50
2018-07-07T05:01:30.547Z,25.17
2018-07-07T05:03:59.896Z,23.57
2018-07-07T05:06:29.511Z,23.77
2018-07-07T05:08:59.913Z,23.23
2018-07-07T05:11:29.208Z,23.67
2018-07-07T05:13:58.351Z,21.87
2018-07-07T05:16:27.537Z,23.13
2018-07-07T05:18:56.980Z,22.53
2018-07-07T05:21:26.269Z,21.40
2018-07-07T05:23:55.545Z,22.00
2018-07-07T05:26:24.805Z,18.50
2018-07-07T05:28:54.461Z,18.23
2018-07-07T05:31:23.661Z,16.40
2018-07-07T05:33:52.783Z,15.70
2018-07-07T05:36:22.033Z,16.40
2018-07-07T05:38:51.219Z,16.97
2018-07-07T05:41:20.316Z,17.10
2018-07-07T05:43:49.686Z,16.30
2018-07-07T05:46:18.859Z,15.57
2018-07-07T05:48:48.389Z,16.60
2018-07-07T05:51:18.410Z,16.63
2018-07-07T05:53:47.534Z,19.67
2018-07-07T05:56:16.697Z,16.17
2018-07-07T05:58:46.021Z,16.10
2018-07-07T06:01:15.120Z,17.23
2018-07-07T06:03:44.426Z,14.80
2018-07-07T06:06:14.381Z,14.30
2018-07-07T06:08:43.456Z,14.20
2018-07-07T06:11:12.719Z,14.93
2018-07-07T06:13:41.898Z,14.53
2018-07-07T06:16:11.263Z,14.93
2018-07-07T06:18:40.421Z,15.27
2018-07-07T06:21:09.636Z,14.77
2018-07-07T06:23:39.067Z,15.57
2018-07-07T06:26:08.262Z,13.33
2018-07-07T06:28:37.320Z,12.70
2018-07-07T06:31:07.063Z,12.60
2018-07-07T06:33:37.072Z,11.03
2018-07-07T06:36:06.457Z,11.20
2018-07-07T06:38:35.603Z,12.47
2018-07-07T06:41:04.721Z,12.00
2018-07-07T06:43:34.370Z,11.50
2018-07-07T06:46:03.482Z,10.70
2018-07-07T06:48:32.637Z,11.90
2018-07-07T06:51:02.105Z,12.93
2018-07-07T06:53:31.826Z,10.93
2018-07-07T06:56:01.001Z,14.13
2018-07-07T06:58:30.256Z,10.95
2018-07-07T07:00:59.742Z,9.50
2018-07-07T07:03:29.032Z,9.97
2018-07-07T07:05:58.357Z,9.50
2018-07-07T07:08:27.736Z,8.40
2018-07-07T07:10:56.942Z,10.27
2018-07-07T07:13:26.240Z,11.73
2018-07-07T07:15:55.411Z,8.87
2018-07-07T07:18:24.752Z,10.57
2018-07-07T07:20:53.853Z,9.33
2018-07-07T07:23:23.381Z,8.87
2018-07-07T07:25:52.618Z,11.53
2018-07-07T07:28:21.555Z,8.47
2018-07-07T07:30:50.715Z,9.10
2018-07-07T07:33:19.880Z,8.97
2018-07-07T07:35:49.029Z,7.00
2018-07-07T07:38:18.414Z,7.20
2018-07-07T07:40:47.725Z,9.60
2018-07-07T07:43:17.039Z,8.63
2018-07-07T07:45:46.254Z,11.37
2018-07-07T07:48:15.618Z,9.87
2018-07-07T07:50:44.922Z,6.40
2018-07-07T07:53:14.084Z,8.60
2018-07-07T07:55:43.361Z,8.13
2018-07-07T07:58:12.633Z,7.97
2018-07-07T08:00:41.829Z,9.70
2018-07-07T08:03:11.247Z,7.33
2018-07-07T08:05:40.580Z,9.53
2018-07-07T08:08:09.647Z,7.43
2018-07-07T08:10:38.410Z,8.47
2018-07-07T08:16:43.059Z,6.27
2018-07-07T08:19:12.141Z,8.40
2018-07-07T08:21:41.327Z,5.73
2018-07-07T08:24:10.501Z,9.67
2018-07-07T08:26:39.663Z,8.73
2018-07-07T08:29:08.844Z,6.00
2018-07-07T08:31:38.202Z,9.93
2018-07-07T08:34:07.352Z,6.80
2018-07-07T08:36:36.465Z,8.33
2018-07-07T08:39:05.645Z,9.50
2018-07-07T08:41:34.857Z,8.20
2018-07-07T08:44:04.315Z,7.13
2018-07-07T08:46:33.474Z,4.93
2018-07-07T08:49:02.771Z,8.33
2018-07-07T08:51:31.809Z,8.17
2018-07-07T08:54:01.058Z,7.17
2018-07-07T08:56:30.321Z,6.33
2018-07-07T08:58:59.579Z,9.67
2018-07-07T09:01:28.773Z,7.37
2018-07-07T09:03:58.842Z,8.07
2018-07-07T09:06:28.007Z,8.23
2018-07-07T09:08:57.071Z,8.33
2018-07-07T09:11:26.306Z,8.90
2018-07-07T09:13:55.452Z,11.03
2018-07-07T09:16:24.555Z,8.23
2018-07-07T09:18:53.745Z,7.90
2018-07-07T09:21:22.990Z,7.07
2018-07-07T09:23:52.223Z,11.50
2018-07-07T09:26:21.309Z,5.90
2018-07-07T09:28:50.350Z,5.40
2018-07-07T09:31:19.507Z,8.60
2018-07-07T09:33:48.596Z,6.47
2018-07-07T09:36:18.006Z,8.20
2018-07-07T09:38:47.201Z,7.83
2018-07-07T09:41:16.497Z,9.90
2018-07-07T09:43:45.721Z,6.67
2018-07-07T09:46:14.867Z,19.50
2018-07-07T09:48:44.108Z,8.23
2018-07-07T09:51:13.311Z,6.45
2018-07-07T09:53:42.702Z,6.27
2018-07-07T09:56:12.247Z,8.73
2018-07-07T09:58:41.420Z,7.17
2018-07-07T10:01:10.547Z,5.95
2018-07-07T10:03:39.576Z,6.15
2018-07-07T10:06:08.971Z,5.90
2018-07-07T10:08:38.107Z,4.80
2018-07-07T10:11:07.406Z,5.47
2018-07-07T10:13:36.772Z,6.83
2018-07-07T10:16:05.925Z,7.30
2018-07-07T10:18:35.089Z,7.50
2018-07-07T10:21:04.355Z,5.40
2018-07-07T10:23:33.748Z,6.75
2018-07-07T10:26:02.817Z,8.95
2018-07-07T10:28:31.999Z,7.65
2018-07-07T10:31:01.092Z,6.20
2018-07-07T10:33:31.082Z,8.03
2018-07-07T10:36:00.210Z,7.87
2018-07-07T10:38:30.118Z,7.60
2018-07-07T10:40:59.184Z,5.15
2018-07-07T10:43:28.585Z,6.12
2018-07-07T10:45:58.273Z,5.17
2018-07-07T10:48:27.351Z,5.47
2018-07-07T10:50:56.656Z,6.75
2018-07-07T10:53:25.909Z,7.42
2018-07-07T10:55:55.069Z,8.20
2018-07-07T10:58:24.315Z,7.33
2018-07-07T11:00:53.460Z,7.00
2018-07-07T11:03:22.849Z,5.97
2018-07-07T11:05:52.008Z,5.20
2018-07-07T11:08:21.070Z,5.78
2018-07-07T11:10:50.105Z,6.83
2018-07-07T11:13:19.307Z,6.28
2018-07-07T11:15:49.181Z,5.37
2018-07-07T11:18:18.313Z,6.47
2018-07-07T11:20:47.547Z,4.22
2018-07-07T11:23:16.588Z,6.55
2018-07-07T11:25:46.437Z,3.98
2018-07-07T11:28:15.643Z,6.47
2018-07-07T11:30:44.855Z,4.62
2018-07-07T11:33:13.923Z,5.40
2018-07-07T11:35:42.932Z,5.92
2018-07-07T11:38:12.322Z,5.40
2018-07-07T11:40:41.360Z,4.50
2018-07-07T11:43:10.526Z,5.65
2018-07-07T11:45:39.622Z,6.08
2018-07-07T11:48:08.752Z,4.62
2018-07-07T11:50:38.244Z,4.78
2018-07-07T11:53:07.249Z,6.95
2018-07-07T11:55:36.442Z,5.20
2018-07-07T11:58:05.989Z,3.25
2018-07-07T12:00:35.177Z,3.98
2018-07-07T12:03:04.264Z,3.35
2018-07-07T12:05:33.691Z,3.72
2018-07-07T12:08:13.781Z,3.10
2018-07-07T12:10:32.608Z,3.37
2018-07-07T12:13:01.732Z,3.40
2018-07-07T12:15:30.871Z,3.37
2018-07-07T12:18:00.016Z,2.77
2018-07-07T12:20:29.110Z,5.72
2018-07-07T12:22:58.281Z,5.17
2018-07-07T12:25:27.481Z,4.67
2018-07-07T12:27:56.881Z,6.58
2018-07-07T12:30:25.994Z,4.65
2018-07-07T12:32:55.071Z,4.85
2018-07-07T12:35:24.306Z,3.35
2018-07-07T12:37:53.567Z,3.27
2018-07-07T12:40:22.667Z,3.08
2018-07-07T12:42:51.753Z,4.35
2018-07-07T12:45:21.276Z,4.12
2018-07-07T12:47:50.712Z,3.00
2018-07-07T12:50:20.109Z,3.85
2018-07-07T12:52:48.843Z,3.30
2018-07-07T12:55:17.756Z,4.37
2018-07-07T12:57:46.894Z,3.33
2018-07-07T13:00:16.034Z,3.30
2018-07-07T13:02:45.130Z,5.05
2018-07-07T13:05:14.339Z,4.62
2018-07-07T13:07:44.118Z,4.33
2018-07-07T13:10:14.169Z,4.33
2018-07-07T13:12:43.311Z,4.37
2018-07-07T13:15:12.701Z,4.30
2018-07-07T13:17:41.794Z,4.30
2018-07-07T13:20:11.198Z,3.20
2018-07-07T13:22:40.235Z,6.62
2018-07-07T13:25:10.179Z,4.10
2018-07-07T13:27:39.344Z,5.00
2018-07-07T13:30:08.397Z,5.20
2018-07-07T13:32:37.539Z,4.95
2018-07-07T13:35:07.005Z,3.70
2018-07-07T13:37:36.888Z,4.80
2018-07-07T13:40:06.110Z,15.00
2018-07-07T13:42:35.427Z,6.65
2018-07-07T13:45:04.810Z,3.67
2018-07-07T13:47:33.933Z,4.22
2018-07-07T13:50:03.192Z,5.25
2018-07-07T13:52:32.222Z,28.42
2018-07-07T13:55:01.433Z,3.45
2018-07-07T13:57:30.667Z,5.22
2018-07-07T13:59:59.879Z,4.12
2018-07-07T14:02:29.267Z,4.60
2018-07-07T14:04:58.844Z,4.05
2018-07-07T14:07:28.026Z,4.47
2018-07-07T14:09:57.120Z,4.42
2018-07-07T14:12:27.018Z,3.90
2018-07-07T14:14:56.944Z,4.17
2018-07-07T14:17:26.956Z,6.33
2018-07-07T14:19:56.336Z,5.70
2018-07-07T14:22:25.859Z,3.90
2018-07-07T14:24:55.242Z,4.20
2018-07-07T14:27:24.378Z,3.60
2018-07-07T14:29:53.494Z,5.20
2018-07-07T14:32:22.776Z,5.33
2018-07-07T14:34:51.841Z,6.72
2018-07-07T14:37:20.701Z,4.08
2018-07-07T14:39:55.333Z,4.50
2018-07-07T14:42:40.227Z,5.15
2018-07-07T14:45:13.431Z,4.15
2018-07-07T14:47:43.123Z,6.10
2018-07-07T14:50:12.715Z,4.80
2018-07-07T14:52:42.191Z,3.52
2018-07-07T14:55:11.732Z,4.17
2018-07-07T14:57:42.054Z,3.95
2018-07-07T15:00:11.733Z,3.72
2018-07-07T15:02:41.052Z,4.03
2018-07-07T15:05:10.118Z,4.22
2018-07-07T15:07:39.239Z,7.55
2018-07-07T15:10:08.712Z,4.70
2018-07-07T15:12:38.120Z,5.47
2018-07-07T15:15:07.504Z,4.47
2018-07-07T15:17:36.582Z,8.33
2018-07-07T15:20:05.927Z,6.15
2018-07-07T15:22:35.129Z,5.55
2018-07-07T15:25:04.514Z,3.70
2018-07-07T15:27:33.877Z,5.33
2018-07-07T15:30:03.067Z,4.83
2018-07-07T15:32:32.322Z,3.85
2018-07-07T15:35:01.470Z,4.22
2018-07-07T15:37:30.680Z,3.95
2018-07-07T15:40:00.435Z,4.70
2018-07-07T15:42:29.571Z,4.55
2018-07-07T15:44:58.700Z,5.62
2018-07-07T15:47:28.269Z,7.12
2018-07-07T15:49:57.573Z,5.72
2018-07-07T15:52:26.610Z,4.10
2018-07-07T15:54:55.771Z,5.00
2018-07-07T15:57:24.929Z,5.50
2018-07-07T15:59:54.272Z,4.15
2018-07-07T16:02:23.482Z,5.28
2018-07-07T16:04:52.723Z,7.37
2018-07-07T16:07:23.002Z,3.92
2018-07-07T16:09:52.183Z,4.33
2018-07-07T16:12:21.356Z,4.28
2018-07-07T16:14:50.621Z,4.17
2018-07-07T16:17:19.832Z,5.55
2018-07-07T16:19:48.910Z,5.72
2018-07-07T16:22:18.456Z,4.50
2018-07-07T16:24:48.701Z,3.85
2018-07-07T16:27:18.544Z,4.58
2018-07-07T16:29:47.807Z,3.90
2018-07-07T16:32:17.317Z,4.10
2018-07-07T16:34:46.448Z,4.28
2018-07-07T16:37:16.441Z,4.37
2018-07-07T16:39:45.525Z,3.52
2018-07-07T16:42:14.840Z,3.85
2018-07-07T16:44:44.117Z,3.87
2018-07-07T16:47:13.933Z,5.08
2018-07-07T16:49:43.257Z,3.67
2018-07-07T16:52:12.428Z,4.72
2018-07-07T16:54:43.056Z,4.25
2018-07-07T16:57:15.739Z,7.80
2018-07-07T16:59:45.227Z,4.22
2018-07-07T17:02:14.640Z,5.05
2018-07-07T17:04:43.857Z,4.55
2018-07-07T17:07:12.960Z,4.08
2018-07-07T17:09:42.088Z,5.40
2018-07-07T17:12:11.259Z,4.03
2018-07-07T17:14:40.627Z,6.17
2018-07-07T17:17:10.113Z,4.00
2018-07-07T17:19:39.953Z,4.03
2018-07-07T17:22:09.100Z,5.47
2018-07-07T17:24:38.331Z,3.90
2018-07-07T17:27:07.655Z,4.55
2018-07-07T17:29:37.357Z,5.50
2018-07-07T17:32:06.460Z,4.20
2018-07-07T17:34:35.555Z,3.98
2018-07-07T17:37:05.611Z,6.15
2018-07-07T17:39:35.091Z,5.05
2018-07-07T17:42:04.048Z,4.12
2018-07-07T17:44:33.208Z,4.35
2018-07-07T17:47:02.515Z,3.60
2018-07-07T17:49:31.679Z,6.40
2018-07-07T17:52:00.746Z,4.65
2018-07-07T17:54:29.861Z,3.83
2018-07-07T17:57:00.047Z,4.05
2018-07-07T17:59:29.146Z,6.17
2018-07-07T18:01:58.353Z,4.03
2018-07-07T18:04:27.569Z,3.60
2018-07-07T18:06:56.849Z,4.55
2018-07-07T18:09:25.979Z,3.35
2018-07-07T18:11:55.383Z,4.67
2018-07-07T18:14:24.397Z,3.60
2018-07-07T18:16:53.427Z,5.85
2018-07-07T18:19:22.626Z,4.97
2018-07-07T18:21:51.679Z,3.83
2018-07-07T18:24:20.561Z,4.37
2018-07-07T18:26:49.596Z,5.80
2018-07-07T18:29:19.405Z,4.03
2018-07-07T18:31:48.486Z,5.60
2018-07-07T18:34:17.655Z,4.10
2018-07-07T18:36:46.959Z,6.08
2018-07-07T18:39:16.100Z,3.92
2018-07-07T18:41:51.667Z,5.22
2018-07-07T18:44:20.900Z,7.08
2018-07-07T18:46:49.967Z,5.03
2018-07-07T18:49:20.046Z,6.12
2018-07-07T18:51:49.113Z,5.28
2018-07-07T18:54:18.273Z,4.92
2018-07-07T18:56:47.658Z,4.05
2018-07-07T18:59:16.747Z,4.17
2018-07-07T19:01:45.935Z,4.33
2018-07-07T19:04:15.075Z,7.80
2018-07-07T19:06:44.108Z,4.62
2018-07-07T19:09:13.260Z,4.10
2018-07-07T19:11:42.467Z,5.60
2018-07-07T19:14:11.628Z,3.67
2018-07-07T19:16:40.748Z,4.53
2018-07-07T19:19:09.972Z,4.70
2018-07-07T19:21:44.304Z,4.27
2018-07-07T19:24:18.882Z,3.87
2018-07-07T19:26:50.182Z,3.93
2018-07-07T19:29:20.164Z,4.13
2018-07-07T19:31:55.477Z,4.90
2018-07-07T19:34:30.277Z,5.97
2018-07-07T19:37:19.960Z,4.30
2018-07-07T19:39:49.329Z,4.90
2018-07-07T19:42:18.424Z,3.97
2018-07-07T19:44:47.578Z,4.60
2018-07-07T19:47:16.876Z,4.47
2018-07-07T19:49:45.990Z,4.30
2018-07-07T19:52:15.268Z,4.53
2018-07-07T19:54:44.808Z,3.70
2018-07-07T19:57:13.942Z,5.10
2018-07-07T19:59:43.141Z,3.80
2018-07-07T20:02:12.272Z,4.57
2018-07-07T20:04:41.585Z,4.63
2018-07-07T20:07:10.664Z,4.27
2018-07-07T20:09:39.869Z,5.87
2018-07-07T20:12:09.178Z,4.63
2018-07-07T20:14:38.384Z,3.97
2018-07-07T20:17:10.798Z,3.93
2018-07-07T20:20:58.279Z,3.97
2018-07-07T20:23:29.567Z,4.33
2018-07-07T20:26:04.518Z,3.90
2018-07-07T20:28:38.797Z,4.87
2018-07-07T20:31:07.935Z,3.90
2018-07-07T20:33:37.626Z,4.93
2018-07-07T20:36:06.786Z,6.60
2018-07-07T20:38:35.974Z,4.83
2018-07-07T20:41:05.140Z,4.60
2018-07-07T20:43:34.559Z,4.50
2018-07-07T20:46:03.717Z,4.63
2018-07-07T20:48:32.749Z,6.73
2018-07-07T20:51:02.105Z,5.67
2018-07-07T20:53:31.245Z,4.27
2018-07-07T20:56:00.331Z,5.93
2018-07-07T20:58:29.506Z,6.33
2018-07-07T21:00:58.592Z,4.63
2018-07-07T21:03:27.440Z,5.13
2018-07-07T21:05:56.395Z,4.30
2018-07-07T21:08:25.570Z,5.90
2018-07-07T21:10:57.101Z,6.13
2018-07-07T21:13:27.773Z,7.63
2018-07-07T21:15:59.510Z,5.03
2018-07-07T21:18:29.615Z,5.60
2018-07-07T21:20:58.857Z,4.70
2018-07-07T21:23:28.561Z,4.73
2018-07-07T21:25:57.747Z,4.50
2018-07-07T21:28:27.000Z,5.57
2018-07-07T21:30:56.431Z,5.27
2018-07-07T21:33:25.958Z,9.33
2018-07-07T21:35:55.525Z,5.30
2018-07-07T21:38:24.821Z,4.83
2018-07-07T21:40:54.027Z,5.03
2018-07-07T21:43:23.342Z,5.00
2018-07-07T21:45:52.583Z,5.70
2018-07-07T21:48:21.786Z,5.63
2018-07-07T21:50:50.989Z,6.13
2018-07-07T21:53:20.076Z,6.77
2018-07-07T21:55:49.469Z,5.20
2018-07-07T21:58:23.905Z,5.40
2018-07-07T22:01:09.895Z,5.97
2018-07-07T22:03:44.751Z,6.73
2018-07-07T22:06:18.231Z,5.27
2018-07-07T22:08:47.690Z,5.17
2018-07-07T22:11:17.226Z,5.07
2018-07-07T22:13:46.533Z,5.80
2018-07-07T22:16:16.014Z,6.33
2018-07-07T22:18:45.137Z,7.60
2018-07-07T22:21:25.907Z,4.60
2018-07-07T22:23:55.339Z,6.53
2018-07-07T22:26:24.504Z,5.23
2018-07-07T22:28:54.145Z,5.43
2018-07-07T22:31:23.733Z,5.77
2018-07-07T22:33:53.001Z,5.63
2018-07-07T22:36:27.362Z,4.80
2018-07-07T22:38:57.111Z,6.67
2018-07-07T22:42:25.706Z,6.77
2018-07-07T22:44:55.177Z,5.20
2018-07-07T22:47:24.456Z,6.07
2018-07-07T22:49:53.609Z,5.57
2018-07-07T22:52:22.783Z,7.13
2018-07-07T22:54:52.045Z,5.13
2018-07-07T22:57:21.213Z,8.87
2018-07-07T22:59:50.539Z,4.43
2018-07-07T23:02:19.591Z,4.80
2018-07-07T23:04:48.849Z,4.03
2018-07-07T23:07:18.058Z,4.60
2018-07-07T23:09:47.326Z,5.60
2018-07-07T23:12:16.489Z,5.60
2018-07-07T23:14:45.778Z,5.47
2018-07-07T23:17:15.189Z,5.00
2018-07-07T23:19:44.127Z,4.90
2018-07-07T23:22:14.739Z,4.20
2018-07-07T23:24:44.035Z,4.60
2018-07-07T23:27:13.210Z,5.73
2018-07-07T23:29:42.401Z,6.60
2018-07-07T23:32:11.576Z,4.10
2018-07-07T23:34:40.613Z,3.80
2018-07-07T23:37:09.733Z,4.13
2018-07-07T23:39:38.756Z,3.57
2018-07-07T23:42:07.915Z,4.40
2018-07-07T23:44:37.161Z,4.70
2018-07-07T23:47:06.627Z,4.37
2018-07-07T23:49:35.776Z,4.83
2018-07-07T23:52:04.936Z,4.43
2018-07-07T23:54:34.077Z,4.27
2018-07-07T23:57:03.282Z,4.47
2018-07-07T23:59:32.404Z,5.57
